createdAt,value
2018-07-31T00:01:38.573Z,30.10
2018-07-31T00:03:41.167Z,30.10
2018-07-31T00:05:43.897Z,30.00
2018-07-31T00:07:46.485Z,30.00
2018-07-31T00:09:49.090Z,30.00
2018-07-31T00:11:51.707Z,30.00
2018-07-31T00:13:55.182Z,30.00
2018-07-31T00:15:57.769Z,30.00
2018-07-31T00:18:01.174Z,29.90
2018-07-31T00:20:03.818Z,29.90
2018-07-31T00:22:06.405Z,29.90
2018-07-31T00:24:09.286Z,29.90
2018-07-31T00:26:12.660Z,29.90
2018-07-31T00:28:15.340Z,29.90
2018-07-31T00:30:17.949Z,29.90
2018-07-31T00:32:20.538Z,29.80
2018-07-31T00:34:23.114Z,29.90
2018-07-31T00:36:25.719Z,29.80
2018-07-31T00:38:28.415Z,29.80
2018-07-31T00:40:31.091Z,29.80
2018-07-31T00:42:33.707Z,29.80
2018-07-31T00:44:36.292Z,29.80
2018-07-31T00:46:38.888Z,29.80
2018-07-31T00:48:41.995Z,29.70
2018-07-31T00:50:44.671Z,29.70
2018-07-31T00:52:47.346Z,29.70
2018-07-31T00:54:49.949Z,29.70
2018-07-31T00:56:53.417Z,29.60
2018-07-31T00:58:56.022Z,29.60
2018-07-31T01:00:59.397Z,29.60
2018-07-31T01:03:02.778Z,29.60
2018-07-31T01:05:05.367Z,29.60
2018-07-31T01:07:08.857Z,29.60
2018-07-31T01:09:12.237Z,29.50
2018-07-31T01:11:14.848Z,29.50
2018-07-31T01:13:17.713Z,29.50
2018-07-31T01:15:21.062Z,29.30
2018-07-31T01:17:23.763Z,29.30
2018-07-31T01:19:26.381Z,29.40
2018-07-31T01:21:28.969Z,29.30
2018-07-31T01:23:31.562Z,29.30
2018-07-31T01:25:34.201Z,29.30
2018-07-31T01:27:36.793Z,29.30
2018-07-31T01:29:39.404Z,29.30
2018-07-31T01:31:42.041Z,29.20
2018-07-31T01:33:44.634Z,29.20
2018-07-31T01:35:47.225Z,29.20
2018-07-31T01:37:49.985Z,29.10
2018-07-31T01:39:52.783Z,29.10
2018-07-31T01:41:55.366Z,29.10
2018-07-31T01:43:58.749Z,29.10
2018-07-31T01:46:01.441Z,29.10
2018-07-31T01:48:11.208Z,29.00
2018-07-31T01:50:13.809Z,29.00
2018-07-31T01:52:16.371Z,29.00
2018-07-31T01:54:19.725Z,28.90
2018-07-31T01:56:22.341Z,28.90
2018-07-31T01:58:24.912Z,28.90
2018-07-31T02:00:27.456Z,28.90
2018-07-31T02:02:30.190Z,28.90
2018-07-31T02:04:32.732Z,28.90
2018-07-31T02:06:35.278Z,28.90
2018-07-31T02:08:38.822Z,28.90
2018-07-31T02:10:41.357Z,28.90
2018-07-31T02:12:43.954Z,28.90
2018-07-31T02:14:46.645Z,29.00
2018-07-31T02:16:49.209Z,28.90
2018-07-31T02:18:51.758Z,28.90
2018-07-31T02:20:54.337Z,28.90
2018-07-31T02:22:56.929Z,28.90
2018-07-31T02:24:59.470Z,28.90
2018-07-31T02:27:02.050Z,28.80
2018-07-31T02:29:04.596Z,28.80
2018-07-31T02:31:07.906Z,28.80
2018-07-31T02:33:10.472Z,28.70
2018-07-31T02:35:13.092Z,28.70
2018-07-31T02:37:15.634Z,28.70
2018-07-31T02:39:18.633Z,28.70
2018-07-31T02:41:21.209Z,28.70
2018-07-31T02:43:23.752Z,28.60
2018-07-31T02:45:26.353Z,28.60
2018-07-31T02:47:28.928Z,28.50
2018-07-31T02:49:31.546Z,28.50
2018-07-31T02:51:34.901Z,28.40
2018-07-31T02:53:37.444Z,28.40
2018-07-31T02:55:39.990Z,28.40
2018-07-31T02:57:43.326Z,28.30
2018-07-31T02:59:45.866Z,28.30
2018-07-31T03:01:48.418Z,28.30
2018-07-31T03:03:51.052Z,28.30
2018-07-31T03:05:53.625Z,28.30
2018-07-31T03:07:56.203Z,28.30
2018-07-31T03:09:58.868Z,28.30
2018-07-31T03:12:01.487Z,28.30
2018-07-31T03:14:04.180Z,28.30
2018-07-31T03:16:06.801Z,28.30
2018-07-31T03:18:09.346Z,28.20
2018-07-31T03:20:11.894Z,28.20
2018-07-31T03:22:15.275Z,28.20
2018-07-31T03:24:17.804Z,28.10
2018-07-31T03:26:20.344Z,28.20
2018-07-31T03:28:22.918Z,28.20
2018-07-31T03:30:26.244Z,28.10
2018-07-31T03:32:28.788Z,28.10
2018-07-31T03:34:31.392Z,28.10
2018-07-31T03:36:33.937Z,28.10
2018-07-31T03:38:36.489Z,28.10
2018-07-31T03:40:39.424Z,28.10
2018-07-31T03:42:41.960Z,28.10
2018-07-31T03:44:44.504Z,28.00
2018-07-31T03:46:48.162Z,27.90
2018-07-31T03:48:50.706Z,27.90
2018-07-31T03:50:53.265Z,27.90
2018-07-31T03:52:56.725Z,27.90
2018-07-31T03:54:59.291Z,27.90
2018-07-31T03:57:01.831Z,27.90
2018-07-31T03:59:04.433Z,27.90
2018-07-31T04:01:06.979Z,27.90
2018-07-31T04:03:09.569Z,27.90
2018-07-31T04:05:12.151Z,27.80
2018-07-31T04:07:14.697Z,27.80
2018-07-31T04:09:17.297Z,27.80
2018-07-31T04:11:19.867Z,27.80
2018-07-31T04:13:22.425Z,27.80
2018-07-31T04:15:24.985Z,27.80
2018-07-31T04:17:27.554Z,27.80
2018-07-31T04:19:30.159Z,27.80
2018-07-31T04:21:32.701Z,27.80
2018-07-31T04:23:35.281Z,27.70
2018-07-31T04:25:37.832Z,27.70
2018-07-31T04:27:41.141Z,27.80
2018-07-31T04:29:43.708Z,27.80
2018-07-31T04:31:46.269Z,27.80
2018-07-31T04:33:49.602Z,27.80
2018-07-31T04:35:53.261Z,27.70
2018-07-31T04:37:55.779Z,27.70
2018-07-31T04:39:58.325Z,27.70
2018-07-31T04:42:01.048Z,27.70
2018-07-31T04:44:03.616Z,27.70
2018-07-31T04:46:06.166Z,27.70
2018-07-31T04:48:08.820Z,27.70
2018-07-31T04:50:11.448Z,27.80
2018-07-31T04:52:13.993Z,27.80
2018-07-31T04:54:16.581Z,27.70
2018-07-31T04:56:19.123Z,27.70
2018-07-31T04:58:21.664Z,27.70
2018-07-31T05:00:25.321Z,27.80
2018-07-31T05:02:27.869Z,27.80
2018-07-31T05:04:30.510Z,27.80
2018-07-31T05:06:33.055Z,27.80
2018-07-31T05:08:35.598Z,27.90
2018-07-31T05:10:38.144Z,27.90
2018-07-31T05:12:40.733Z,27.90
2018-07-31T05:14:43.292Z,28.00
2018-07-31T05:16:46.042Z,28.00
2018-07-31T05:18:48.597Z,28.00
2018-07-31T05:20:51.133Z,28.00
2018-07-31T05:22:53.676Z,28.00
2018-07-31T05:24:57.009Z,28.10
2018-07-31T05:26:59.625Z,28.10
2018-07-31T05:29:02.252Z,28.10
2018-07-31T05:31:04.838Z,28.20
2018-07-31T05:33:07.426Z,28.20
2018-07-31T05:35:10.085Z,28.20
2018-07-31T05:37:12.860Z,28.20
2018-07-31T05:39:15.414Z,28.30
2018-07-31T05:41:18.008Z,28.30
2018-07-31T05:43:20.585Z,28.30
2018-07-31T05:45:23.148Z,28.30
2018-07-31T05:47:25.728Z,28.40
2018-07-31T05:49:28.553Z,28.40
2018-07-31T05:51:31.894Z,28.40
2018-07-31T05:53:34.453Z,28.40
2018-07-31T05:55:37.352Z,28.40
2018-07-31T05:57:39.933Z,28.50
2018-07-31T05:59:42.516Z,28.50
2018-07-31T06:01:45.074Z,28.50
2018-07-31T06:03:47.657Z,28.50
2018-07-31T06:05:50.224Z,28.50
2018-07-31T06:07:53.600Z,28.50
2018-07-31T06:09:56.193Z,28.50
2018-07-31T06:11:58.752Z,28.50
2018-07-31T06:14:01.682Z,28.60
2018-07-31T06:16:04.225Z,28.50
2018-07-31T06:18:06.786Z,28.60
2018-07-31T06:20:09.650Z,28.60
2018-07-31T06:22:12.250Z,28.60
2018-07-31T06:24:14.825Z,28.60
2018-07-31T06:26:17.381Z,28.60
2018-07-31T06:28:19.960Z,28.60
2018-07-31T06:30:22.547Z,28.60
2018-07-31T06:32:25.216Z,28.60
2018-07-31T06:34:27.780Z,28.70
2018-07-31T06:36:32.077Z,28.70
2018-07-31T06:38:34.673Z,28.60
2018-07-31T06:40:37.245Z,28.70
2018-07-31T06:42:39.797Z,28.70
2018-07-31T06:44:42.397Z,28.70
2018-07-31T06:46:45.181Z,28.70
2018-07-31T06:48:47.724Z,28.80
2018-07-31T06:50:50.421Z,28.80
2018-07-31T06:52:52.964Z,28.80
2018-07-31T06:54:55.552Z,28.80
2018-07-31T06:56:58.129Z,28.80
2018-07-31T06:59:00.754Z,28.80
2018-07-31T07:01:03.400Z,28.90
2018-07-31T07:03:06.380Z,28.90
2018-07-31T07:05:08.920Z,28.90
2018-07-31T07:07:11.561Z,28.90
2018-07-31T07:09:14.246Z,28.90
2018-07-31T07:11:16.762Z,28.90
2018-07-31T07:13:19.488Z,29.00
2018-07-31T07:15:22.153Z,29.00
2018-07-31T07:17:24.726Z,29.00
2018-07-31T07:19:27.276Z,29.00
2018-07-31T07:21:29.846Z,29.00
2018-07-31T07:23:32.397Z,29.00
2018-07-31T07:25:34.948Z,29.00
2018-07-31T07:27:38.393Z,29.10
2018-07-31T07:29:40.964Z,29.00
2018-07-31T07:31:43.510Z,29.10
2018-07-31T07:33:46.135Z,29.10
2018-07-31T07:35:48.693Z,29.10
2018-07-31T07:37:51.244Z,29.10
2018-07-31T07:39:53.845Z,29.20
2018-07-31T07:41:56.417Z,29.20
2018-07-31T07:43:58.974Z,29.20
2018-07-31T07:46:01.771Z,29.20
2018-07-31T07:48:04.313Z,29.20
2018-07-31T07:50:06.993Z,29.20
2018-07-31T07:52:09.584Z,29.30
2018-07-31T07:54:12.224Z,29.30
2018-07-31T07:56:14.699Z,29.20
2018-07-31T07:58:17.338Z,29.30
2018-07-31T08:00:20.657Z,29.30
2018-07-31T08:02:23.256Z,29.30
2018-07-31T08:04:25.872Z,29.40
2018-07-31T08:06:29.208Z,29.40
2018-07-31T08:08:31.751Z,29.40
2018-07-31T08:10:35.400Z,29.50
2018-07-31T08:12:37.962Z,29.40
2018-07-31T08:14:40.512Z,29.50
2018-07-31T08:16:43.085Z,29.50
2018-07-31T08:18:45.632Z,29.50
2018-07-31T08:20:48.948Z,29.50
2018-07-31T08:22:51.553Z,29.50
2018-07-31T08:24:54.164Z,29.60
2018-07-31T08:26:56.693Z,29.60
2018-07-31T08:28:59.278Z,29.60
2018-07-31T08:31:01.854Z,29.60
2018-07-31T08:33:04.417Z,29.70
2018-07-31T08:35:07.031Z,29.70
2018-07-31T08:37:09.692Z,29.70
2018-07-31T08:39:12.280Z,29.80
2018-07-31T08:41:14.855Z,29.80
2018-07-31T08:43:18.945Z,29.80
2018-07-31T08:45:21.500Z,29.80
2018-07-31T08:47:24.178Z,29.80
2018-07-31T08:49:26.757Z,29.90
2018-07-31T08:51:30.132Z,29.90
2018-07-31T08:53:32.680Z,29.90
2018-07-31T08:55:35.286Z,29.90
2018-07-31T08:57:38.717Z,30.00
2018-07-31T08:59:41.272Z,30.00
2018-07-31T09:01:43.821Z,30.00
2018-07-31T09:03:46.369Z,30.00
2018-07-31T09:05:48.979Z,30.10
2018-07-31T09:07:51.561Z,30.10
2018-07-31T09:09:54.216Z,30.10
2018-07-31T09:11:56.771Z,30.20
2018-07-31T09:13:59.380Z,30.20
2018-07-31T09:16:02.083Z,30.20
2018-07-31T09:18:04.622Z,30.30
2018-07-31T09:20:07.211Z,30.30
2018-07-31T09:22:09.806Z,30.30
2018-07-31T09:24:12.356Z,30.40
2018-07-31T09:26:14.897Z,30.40
2018-07-31T09:28:17.465Z,30.40
2018-07-31T09:30:20.092Z,30.50
2018-07-31T09:32:22.633Z,30.50
2018-07-31T09:34:25.197Z,30.50
2018-07-31T09:36:27.793Z,30.60
2018-07-31T09:38:30.421Z,30.60
2018-07-31T09:40:33.033Z,30.60
2018-07-31T09:42:35.572Z,30.70
2018-07-31T09:44:38.268Z,30.70
2018-07-31T09:46:40.841Z,30.70
2018-07-31T09:48:43.442Z,30.80
2018-07-31T09:50:46.097Z,30.80
2018-07-31T09:52:48.645Z,30.90
2018-07-31T09:54:51.269Z,30.90
2018-07-31T09:56:53.816Z,30.90
2018-07-31T09:58:56.433Z,31.00
2018-07-31T10:00:58.993Z,31.00
2018-07-31T10:03:01.562Z,31.10
2018-07-31T10:05:04.168Z,31.10
2018-07-31T10:07:06.685Z,31.20
2018-07-31T10:09:09.224Z,31.20
2018-07-31T10:11:11.781Z,31.30
2018-07-31T10:13:15.124Z,31.40
2018-07-31T10:15:17.718Z,31.40
2018-07-31T10:17:20.257Z,31.40
2018-07-31T10:19:22.883Z,31.50
2018-07-31T10:21:25.410Z,31.60
2018-07-31T10:23:27.993Z,31.60
2018-07-31T10:25:30.883Z,31.60
2018-07-31T10:27:33.452Z,31.70
2018-07-31T10:29:36.005Z,31.60
2018-07-31T10:31:38.573Z,31.70
2018-07-31T10:33:41.986Z,31.80
2018-07-31T10:35:44.549Z,31.80
2018-07-31T10:37:47.160Z,31.90
2018-07-31T10:39:49.705Z,31.90
2018-07-31T10:41:52.280Z,31.90
2018-07-31T10:43:54.861Z,32.00
2018-07-31T10:45:57.433Z,32.00
2018-07-31T10:47:59.976Z,32.10
2018-07-31T10:50:02.569Z,32.10
2018-07-31T10:52:05.135Z,32.20
2018-07-31T10:54:07.676Z,32.20
2018-07-31T10:56:11.108Z,32.20
2018-07-31T10:58:13.753Z,32.20
2018-07-31T11:00:16.259Z,32.30
2018-07-31T11:02:18.836Z,32.30
2018-07-31T11:04:21.399Z,32.30
2018-07-31T11:06:24.010Z,32.40
2018-07-31T11:08:26.553Z,32.40
2018-07-31T11:10:29.110Z,32.40
2018-07-31T11:12:31.717Z,32.40
2018-07-31T11:14:34.505Z,32.40
2018-07-31T11:16:37.072Z,32.50
2018-07-31T11:18:39.602Z,32.50
2018-07-31T11:20:42.180Z,32.50
2018-07-31T11:22:45.563Z,32.60
2018-07-31T11:24:48.110Z,32.60
2018-07-31T11:26:51.461Z,32.60
2018-07-31T11:28:54.005Z,32.60
2018-07-31T11:30:56.597Z,32.60
2018-07-31T11:32:59.482Z,32.70
2018-07-31T11:35:02.033Z,32.70
2018-07-31T11:37:04.611Z,32.70
2018-07-31T11:39:07.548Z,32.80
2018-07-31T11:41:10.069Z,32.80
2018-07-31T11:43:12.652Z,32.80
2018-07-31T11:45:15.425Z,32.80
2018-07-31T11:47:17.969Z,32.90
2018-07-31T11:49:20.517Z,32.90
2018-07-31T11:51:23.865Z,32.90
2018-07-31T11:53:26.409Z,33.00
2018-07-31T11:55:29.056Z,33.00
2018-07-31T11:57:31.693Z,33.00
2018-07-31T11:59:34.264Z,33.00
2018-07-31T12:01:36.934Z,33.10
2018-07-31T12:03:39.555Z,33.10
2018-07-31T12:05:42.225Z,33.20
2018-07-31T12:07:44.785Z,33.20
2018-07-31T12:09:48.343Z,33.30
2018-07-31T12:11:51.037Z,33.20
2018-07-31T12:13:53.605Z,33.30
2018-07-31T12:15:56.225Z,33.30
2018-07-31T12:18:13.662Z,33.40
2018-07-31T12:29:54.885Z,33.40
2018-07-31T12:31:57.413Z,32.80
2018-07-31T12:33:59.996Z,32.80
2018-07-31T12:36:02.912Z,32.80
2018-07-31T12:38:05.477Z,32.90
2018-07-31T12:40:08.017Z,33.10
2018-07-31T12:42:10.579Z,33.10
2018-07-31T12:44:13.285Z,33.20
2018-07-31T12:46:15.864Z,33.30
2018-07-31T12:48:18.725Z,33.40
2018-07-31T12:50:21.261Z,33.50
2018-07-31T12:52:23.868Z,33.60
2018-07-31T12:54:26.442Z,33.60
2018-07-31T12:56:29.920Z,33.70
2018-07-31T12:58:32.551Z,33.80
2018-07-31T13:00:35.106Z,33.80
2018-07-31T13:02:37.652Z,33.90
2018-07-31T13:04:40.244Z,34.00
2018-07-31T13:06:42.844Z,34.00
2018-07-31T13:08:45.389Z,34.00
2018-07-31T13:10:47.951Z,34.10
2018-07-31T13:12:50.536Z,34.10
2018-07-31T13:14:53.109Z,34.20
2018-07-31T13:16:55.832Z,34.10
2018-07-31T13:18:59.514Z,34.20
2018-07-31T13:21:02.028Z,34.20
2018-07-31T13:23:04.573Z,34.30
2018-07-31T13:25:08.048Z,34.30
2018-07-31T13:27:10.600Z,34.30
2018-07-31T13:29:13.278Z,34.40
2018-07-31T13:31:15.850Z,34.40
2018-07-31T13:33:18.396Z,34.40
2018-07-31T13:35:20.936Z,34.50
2018-07-31T13:37:24.377Z,34.60
2018-07-31T13:39:26.921Z,34.60
2018-07-31T13:41:29.530Z,34.60
2018-07-31T13:43:32.123Z,34.60
2018-07-31T13:45:34.640Z,34.70
2018-07-31T13:47:37.255Z,34.80
2018-07-31T13:49:40.122Z,34.90
2018-07-31T13:51:42.693Z,34.90
2018-07-31T13:53:45.254Z,34.90
2018-07-31T13:55:47.857Z,35.00
2018-07-31T13:57:50.399Z,35.10
2018-07-31T13:59:52.957Z,35.10
2018-07-31T14:01:55.567Z,35.10
2018-07-31T14:03:58.113Z,35.20
2018-07-31T14:06:00.679Z,35.20
2018-07-31T14:08:04.041Z,35.30
2018-07-31T14:10:07.212Z,35.30
2018-07-31T14:12:09.801Z,35.40
2018-07-31T14:14:12.380Z,35.40
2018-07-31T14:16:15.693Z,35.50
2018-07-31T14:18:18.383Z,35.50
2018-07-31T14:20:21.081Z,35.60
2018-07-31T14:22:23.631Z,35.60
2018-07-31T14:24:26.207Z,35.60
2018-07-31T14:26:29.838Z,35.70
2018-07-31T14:28:32.381Z,35.70
2018-07-31T14:30:34.972Z,35.80
2018-07-31T14:32:37.576Z,35.80
2018-07-31T14:34:40.137Z,35.90
2018-07-31T14:36:42.747Z,36.00
2018-07-31T14:38:45.522Z,36.00
2018-07-31T14:40:48.053Z,36.10
2018-07-31T14:42:50.655Z,36.10
2018-07-31T14:44:53.152Z,36.10
2018-07-31T14:46:55.701Z,36.10
2018-07-31T14:48:59.019Z,36.20
2018-07-31T14:51:01.602Z,36.20
2018-07-31T14:53:04.201Z,36.30
2018-07-31T14:55:06.752Z,36.30
2018-07-31T14:57:09.343Z,36.30
2018-07-31T14:59:11.889Z,36.30
2018-07-31T15:01:15.296Z,36.20
2018-07-31T15:03:17.852Z,36.20
2018-07-31T15:05:20.462Z,36.20
2018-07-31T15:07:23.009Z,36.10
2018-07-31T15:09:25.622Z,36.10
2018-07-31T15:11:28.279Z,36.10
2018-07-31T15:13:30.817Z,36.10
2018-07-31T15:15:33.687Z,36.00
2018-07-31T15:17:37.129Z,35.90
2018-07-31T15:19:39.676Z,35.90
2018-07-31T15:21:42.269Z,35.90
2018-07-31T15:23:44.849Z,35.80
2018-07-31T15:25:47.425Z,35.80
2018-07-31T15:27:50.013Z,35.70
2018-07-31T15:29:52.567Z,35.60
2018-07-31T15:31:55.141Z,35.50
2018-07-31T15:33:57.747Z,35.50
2018-07-31T15:36:00.296Z,35.40
2018-07-31T15:38:02.860Z,35.40
2018-07-31T15:40:05.705Z,35.30
2018-07-31T15:42:08.328Z,35.20
2018-07-31T15:44:10.902Z,35.10
2018-07-31T15:46:13.628Z,35.00
2018-07-31T15:48:16.164Z,34.90
2018-07-31T15:50:18.687Z,34.80
2018-07-31T15:52:21.365Z,34.80
2018-07-31T15:54:23.967Z,34.70
2018-07-31T15:56:26.505Z,34.60
2018-07-31T15:58:29.114Z,34.60
2018-07-31T16:00:31.673Z,34.50
2018-07-31T16:02:34.213Z,34.40
2018-07-31T16:04:37.549Z,34.40
2018-07-31T16:06:40.174Z,34.40
2018-07-31T16:08:42.706Z,34.40
2018-07-31T16:10:45.277Z,34.40
2018-07-31T16:12:47.825Z,34.40
2018-07-31T16:14:50.441Z,34.40
2018-07-31T16:16:53.038Z,34.50
2018-07-31T16:18:56.376Z,34.40
2018-07-31T16:20:58.995Z,34.40
2018-07-31T16:23:01.666Z,34.40
2018-07-31T16:25:04.213Z,34.50
2018-07-31T16:27:06.756Z,34.50
2018-07-31T16:29:09.349Z,34.50
2018-07-31T16:31:11.928Z,34.60
2018-07-31T16:33:14.478Z,34.60
2018-07-31T16:35:17.076Z,34.60
2018-07-31T16:37:19.636Z,34.60
2018-07-31T16:39:22.182Z,34.60
2018-07-31T16:41:24.879Z,34.70
2018-07-31T16:43:27.364Z,34.70
2018-07-31T16:45:29.910Z,34.80
2018-07-31T16:47:32.509Z,34.90
2018-07-31T16:49:35.054Z,34.90
2018-07-31T16:51:37.753Z,34.90
2018-07-31T16:53:41.972Z,35.00
2018-07-31T16:55:44.533Z,35.00
2018-07-31T16:57:47.125Z,35.10
2018-07-31T16:59:49.805Z,35.10
2018-07-31T17:01:52.352Z,35.20
2018-07-31T17:03:54.897Z,35.20
2018-07-31T17:05:58.356Z,35.20
2018-07-31T17:08:00.909Z,35.20
2018-07-31T17:10:03.483Z,35.30
2018-07-31T17:12:06.157Z,35.30
2018-07-31T17:14:08.773Z,35.30
2018-07-31T17:16:11.293Z,35.30
2018-07-31T17:18:13.880Z,35.30
2018-07-31T17:20:16.453Z,35.30
2018-07-31T17:22:18.998Z,35.40
2018-07-31T17:24:21.942Z,35.30
2018-07-31T17:26:24.469Z,35.40
2018-07-31T17:28:27.050Z,35.40
2018-07-31T17:30:30.533Z,35.50
2018-07-31T17:32:33.163Z,35.50
2018-07-31T17:34:35.688Z,35.50
2018-07-31T17:36:38.270Z,35.50
2018-07-31T17:38:40.945Z,35.50
2018-07-31T17:40:43.508Z,35.50
2018-07-31T17:42:46.076Z,35.50
2018-07-31T17:44:48.624Z,35.60
2018-07-31T17:46:51.180Z,35.60
2018-07-31T17:48:54.516Z,35.60
2018-07-31T17:50:57.104Z,35.60
2018-07-31T17:52:59.640Z,35.60
2018-07-31T17:55:02.287Z,35.60
2018-07-31T17:57:04.847Z,35.60
2018-07-31T17:59:07.375Z,35.60
2018-07-31T18:01:10.283Z,35.60
2018-07-31T18:03:12.835Z,35.60
2018-07-31T18:05:15.374Z,35.60
2018-07-31T18:07:19.017Z,35.60
2018-07-31T18:09:21.621Z,35.60
2018-07-31T18:11:24.269Z,35.60
2018-07-31T18:13:26.964Z,35.60
2018-07-31T18:15:29.517Z,35.60
2018-07-31T18:17:32.133Z,35.60
2018-07-31T18:19:35.077Z,35.50
2018-07-31T18:21:38.433Z,35.50
2018-07-31T18:23:41.080Z,35.50
2018-07-31T18:25:43.621Z,35.50
2018-07-31T18:27:46.167Z,35.50
2018-07-31T18:29:48.711Z,35.50
2018-07-31T18:31:52.353Z,35.50
2018-07-31T18:33:54.901Z,35.50
2018-07-31T18:35:57.442Z,35.40
2018-07-31T18:38:00.850Z,35.40
2018-07-31T18:40:04.166Z,35.40
2018-07-31T18:42:06.770Z,35.30
2018-07-31T18:44:09.392Z,35.30
2018-07-31T18:46:12.689Z,35.20
2018-07-31T18:48:15.338Z,35.20
2018-07-31T18:50:17.994Z,35.20
2018-07-31T18:52:20.562Z,35.20
2018-07-31T18:54:23.097Z,35.20
2018-07-31T18:56:25.661Z,35.10
2018-07-31T18:58:28.268Z,35.10
2018-07-31T19:00:30.845Z,35.00
2018-07-31T19:02:33.524Z,35.10
2018-07-31T19:04:36.067Z,35.00
2018-07-31T19:06:38.664Z,35.00
2018-07-31T19:08:41.969Z,34.90
2018-07-31T19:10:44.629Z,34.90
2018-07-31T19:12:47.181Z,34.90
2018-07-31T19:14:49.887Z,34.80
2018-07-31T19:16:53.412Z,34.80
2018-07-31T19:18:55.945Z,34.70
2018-07-31T19:20:58.520Z,34.60
2018-07-31T19:23:01.088Z,34.60
2018-07-31T19:25:03.954Z,34.60
2018-07-31T19:27:06.936Z,34.50
2018-07-31T19:29:09.764Z,34.50
2018-07-31T19:31:12.351Z,34.40
2018-07-31T19:33:15.009Z,34.40
2018-07-31T19:35:17.858Z,34.40
2018-07-31T19:37:20.547Z,34.30
2018-07-31T19:39:23.322Z,34.30
2018-07-31T19:41:26.139Z,34.30
2018-07-31T19:43:28.679Z,34.30
2018-07-31T19:45:31.427Z,34.20
2018-07-31T19:47:34.373Z,34.20
2018-07-31T19:49:37.057Z,34.10
2018-07-31T19:51:40.404Z,34.10
2018-07-31T19:53:43.153Z,34.10
2018-07-31T19:55:45.753Z,34.00
2018-07-31T19:57:48.362Z,34.00
2018-07-31T19:59:50.996Z,33.90
2018-07-31T20:01:53.564Z,33.90
2018-07-31T20:03:56.283Z,33.90
2018-07-31T20:05:59.070Z,33.80
2018-07-31T20:08:01.643Z,33.70
2018-07-31T20:10:04.989Z,33.70
2018-07-31T20:12:07.551Z,33.60
2018-07-31T20:14:10.141Z,33.60
2018-07-31T20:16:12.723Z,33.50
2018-07-31T20:18:15.468Z,33.50
2018-07-31T20:20:18.761Z,33.50
2018-07-31T20:22:21.336Z,33.50
2018-07-31T20:24:24.075Z,33.40
2018-07-31T20:26:26.966Z,33.40
2018-07-31T20:28:30.628Z,33.30
2018-07-31T20:30:33.382Z,33.30
2018-07-31T20:32:36.681Z,33.30
2018-07-31T20:34:39.277Z,33.30
2018-07-31T20:36:42.002Z,33.20
2018-07-31T20:38:44.589Z,33.20
2018-07-31T20:40:47.169Z,33.20
2018-07-31T20:42:49.789Z,33.10
2018-07-31T20:44:52.317Z,33.10
2018-07-31T20:46:55.939Z,33.10
2018-07-31T20:48:58.500Z,33.00
2018-07-31T20:51:01.057Z,33.00
2018-07-31T20:53:03.640Z,33.00
2018-07-31T20:55:06.324Z,32.90
2018-07-31T20:57:08.870Z,32.90
2018-07-31T20:59:11.465Z,32.90
2018-07-31T21:01:14.018Z,32.90
2018-07-31T21:03:16.565Z,32.90
2018-07-31T21:05:20.000Z,32.80
2018-07-31T21:07:22.581Z,32.80
2018-07-31T21:09:25.157Z,32.80
2018-07-31T21:11:27.728Z,32.80
2018-07-31T21:13:30.268Z,32.70
2018-07-31T21:15:32.908Z,32.70
2018-07-31T21:17:35.710Z,32.70
2018-07-31T21:19:39.739Z,32.60
2018-07-31T21:21:42.345Z,32.60
2018-07-31T21:23:44.901Z,32.60
2018-07-31T21:25:47.506Z,32.60
2018-07-31T21:27:51.320Z,32.50
2018-07-31T21:29:53.857Z,32.50
2018-07-31T21:31:56.534Z,32.50
2018-07-31T21:33:59.105Z,32.50
2018-07-31T21:36:01.781Z,32.50
2018-07-31T21:38:04.357Z,32.50
2018-07-31T21:40:06.940Z,32.50
2018-07-31T21:42:09.617Z,32.50
2018-07-31T21:44:12.176Z,32.40
2018-07-31T21:46:14.737Z,32.40
2018-07-31T21:48:17.322Z,32.40
2018-07-31T21:50:19.865Z,32.30
2018-07-31T21:52:22.509Z,32.30
2018-07-31T21:54:25.143Z,32.30
2018-07-31T21:56:27.689Z,32.30
2018-07-31T21:58:30.413Z,32.30
2018-07-31T22:00:32.973Z,32.20
2018-07-31T22:02:35.523Z,32.20
2018-07-31T22:04:38.120Z,32.20
2018-07-31T22:06:40.696Z,32.10
2018-07-31T22:08:43.260Z,32.20
2018-07-31T22:10:46.120Z,32.10
2018-07-31T22:12:49.429Z,32.00
2018-07-31T22:14:52.009Z,32.00
2018-07-31T22:16:54.594Z,32.10
2018-07-31T22:18:57.170Z,32.10
2018-07-31T22:21:00.137Z,32.10
2018-07-31T22:23:02.692Z,32.00
2018-07-31T22:25:05.348Z,32.00
2018-07-31T22:27:07.909Z,32.00
2018-07-31T22:29:12.074Z,31.90
2018-07-31T22:31:14.624Z,31.90
2018-07-31T22:33:17.253Z,31.90
2018-07-31T22:35:19.778Z,31.80
2018-07-31T22:37:22.361Z,31.80
2018-07-31T22:39:25.060Z,31.80
2018-07-31T22:41:27.605Z,31.80
2018-07-31T22:43:30.190Z,31.80
2018-07-31T22:45:33.146Z,31.80
2018-07-31T22:47:35.882Z,31.70
2018-07-31T22:49:38.427Z,31.70
2018-07-31T22:51:40.992Z,31.70
2018-07-31T22:53:43.772Z,31.60
2018-07-31T22:55:46.345Z,31.60
2018-07-31T22:57:48.978Z,31.50
2018-07-31T22:59:52.352Z,31.40
2018-07-31T23:01:55.724Z,31.40
2018-07-31T23:03:58.288Z,31.40
2018-07-31T23:06:00.858Z,31.40
2018-07-31T23:08:03.429Z,31.40
2018-07-31T23:10:05.972Z,31.40
2018-07-31T23:12:08.879Z,31.40
2018-07-31T23:14:11.464Z,31.40
2018-07-31T23:16:14.031Z,31.40
2018-07-31T23:18:16.817Z,31.40
2018-07-31T23:20:19.369Z,31.40
2018-07-31T23:22:21.913Z,31.40
2018-07-31T23:24:24.472Z,31.30
2018-07-31T23:26:27.789Z,31.30
2018-07-31T23:28:30.365Z,31.30
2018-07-31T23:30:33.729Z,31.20
2018-07-31T23:32:37.040Z,31.20
2018-07-31T23:34:39.605Z,31.20
2018-07-31T23:36:42.205Z,31.20
2018-07-31T23:38:44.932Z,31.20
2018-07-31T23:40:48.596Z,31.10
2018-07-31T23:42:51.140Z,31.10
2018-07-31T23:44:53.686Z,31.00
2018-07-31T23:46:57.144Z,30.90
2018-07-31T23:48:59.696Z,30.90
2018-07-31T23:51:02.313Z,30.90
2018-07-31T23:53:04.854Z,30.90
2018-07-31T23:55:07.518Z,30.90
2018-07-31T23:57:10.085Z,30.80
2018-07-31T23:59:12.712Z,30.80
